Time;durP1;ratioP1;P1;durP2;ratioP2;P2;SDS_P1;SDS_P2;PMS_P1;PMS_P2;Temp;Humidity;BMP_temperature;BMP_pressure;BME280_temperature;BME280_humidity;BME280_pressure;Samples;Min_cycle;Max_cycle;Signal;HPM_P1;HPM_P2
2021/07/06 00:01:23;;;;;;;7.57;6.80;;;14.60;75.40;;;;;;4957491;28;95958;-49
2021/07/06 00:03:53;;;;;;;7.88;6.28;;;14.70;74.40;;;;;;4959443;28;96036;-50
2021/07/06 00:06:25;;;;;;;7.22;6.25;;;14.70;74.20;;;;;;4962372;28;95776;-53
2021/07/06 00:08:56;;;;;;;7.05;5.93;;;14.80;74.00;;;;;;4960771;28;95858;-50
2021/07/06 00:11:27;;;;;;;9.48;6.57;;;14.80;73.80;;;;;;4965540;28;95993;-50
2021/07/06 00:13:58;;;;;;;12.43;6.88;;;14.80;73.70;;;;;;4950611;28;96476;-49
2021/07/06 00:16:28;;;;;;;9.00;5.67;;;15.00;73.60;;;;;;4954716;28;95554;-50
2021/07/06 00:19:00;;;;;;;7.53;5.75;;;15.00;73.50;;;;;;4963722;28;95902;-49
2021/07/06 00:21:31;;;;;;;7.82;5.45;;;15.00;73.40;;;;;;4965465;28;96433;-51
2021/07/06 00:24:02;;;;;;;6.82;5.38;;;15.00;73.30;;;;;;4965305;28;95964;-51
2021/07/06 00:26:32;;;;;;;7.25;5.80;;;15.00;73.20;;;;;;4966086;28;96312;-51
2021/07/06 00:29:02;;;;;;;7.53;5.57;;;15.10;73.00;;;;;;4964991;28;95740;-52
2021/07/06 00:31:34;;;;;;;9.15;6.07;;;15.10;73.20;;;;;;4951972;28;101892;-51
2021/07/06 00:34:06;;;;;;;7.57;5.43;;;15.10;73.10;;;;;;4965263;28;95931;-52
2021/07/06 00:36:37;;;;;;;9.95;6.22;;;15.10;72.90;;;;;;4963309;28;96336;-50
2021/07/06 00:39:08;;;;;;;11.27;7.87;;;15.20;72.70;;;;;;4966253;28;95640;-53
2021/07/06 00:41:40;;;;;;;11.07;8.50;;;15.20;72.70;;;;;;4962360;28;96813;-50
2021/07/06 00:44:17;;;;;;;9.43;7.57;;;15.20;72.40;;;;;;4965825;28;96633;-51
2021/07/06 00:46:50;;;;;;;9.77;6.88;;;15.20;72.30;;;;;;4957535;28;97936;-50
2021/07/06 00:49:22;;;;;;;10.35;7.63;;;15.30;72.30;;;;;;4962820;28;95952;-50
2021/07/06 00:51:52;;;;;;;9.48;7.32;;;15.30;72.20;;;;;;4961995;28;95824;-50
2021/07/06 00:54:23;;;;;;;8.95;6.38;;;15.30;72.20;;;;;;4965476;28;95834;-50
2021/07/06 00:56:54;;;;;;;9.55;6.72;;;15.40;72.10;;;;;;4962041;28;95883;-48
2021/07/06 00:59:25;;;;;;;9.23;7.10;;;15.40;72.00;;;;;;4965648;28;97236;-50
2021/07/06 01:01:55;;;;;;;9.38;7.20;;;15.40;72.10;;;;;;4958299;28;95958;-54
2021/07/06 01:04:26;;;;;;;9.20;7.22;;;15.40;71.90;;;;;;4963652;28;95832;-49
2021/07/06 01:06:57;;;;;;;8.40;6.15;;;15.40;71.80;;;;;;4962041;28;97238;-56
2021/07/06 01:09:28;;;;;;;9.52;6.32;;;15.50;72.00;;;;;;4965624;28;96789;-50
2021/07/06 01:11:58;;;;;;;8.00;6.10;;;15.50;71.90;;;;;;4962922;28;96957;-54
2021/07/06 01:14:29;;;;;;;10.32;6.70;;;15.50;71.80;;;;;;4954434;28;95892;-51
2021/07/06 01:17:00;;;;;;;10.43;7.15;;;15.50;71.60;;;;;;4956331;28;97024;-51
2021/07/06 01:19:31;;;;;;;10.43;7.60;;;15.60;71.50;;;;;;4965980;28;96072;-48
2021/07/06 01:22:06;;;;;;;8.95;6.60;;;15.60;71.50;;;;;;4959747;28;104386;-50
2021/07/06 01:24:40;;;;;;;9.32;7.00;;;15.60;71.50;;;;;;4965114;28;95902;-49
2021/07/06 01:27:10;;;;;;;10.38;7.10;;;15.60;71.60;;;;;;4962306;28;95668;-52
2021/07/06 01:29:40;;;;;;;9.55;7.35;;;15.60;71.40;;;;;;4965753;28;96220;-51
2021/07/06 01:32:12;;;;;;;12.27;7.43;;;15.70;71.30;;;;;;4957533;28;95963;-50
2021/07/06 01:34:44;;;;;;;8.68;6.38;;;15.70;71.20;;;;;;4957080;28;97102;-50
2021/07/06 01:37:18;;;;;;;7.38;6.25;;;15.70;71.20;;;;;;4960095;28;95842;-48
2021/07/06 01:39:51;;;;;;;9.75;6.28;;;15.70;71.10;;;;;;4962805;28;95945;-53
2021/07/06 01:42:23;;;;;;;9.77;6.72;;;15.80;71.20;;;;;;4961715;28;96998;-53
2021/07/06 01:45:11;;;;;;;7.85;5.97;;;15.80;71.20;;;;;;4964802;28;95966;-52
2021/07/06 01:47:44;;;;;;;9.10;6.88;;;15.80;71.10;;;;;;4959383;28;95742;-51
2021/07/06 01:50:28;;;;;;;10.55;7.50;;;15.80;71.10;;;;;;4961251;28;98299;-54
2021/07/06 01:53:02;;;;;;;10.95;7.30;;;15.80;71.00;;;;;;4959210;28;98111;-48
2021/07/06 01:55:38;;;;;;;11.15;7.40;;;15.90;71.00;;;;;;4962784;28;95979;-49
2021/07/06 01:58:12;;;;;;;10.30;8.18;;;15.90;71.00;;;;;;4961845;28;99957;-50
2021/07/06 02:00:46;;;;;;;9.98;7.47;;;15.80;71.00;;;;;;4951536;28;95828;-49
2021/07/06 02:03:17;;;;;;;11.05;7.53;;;15.90;71.00;;;;;;4962127;28;105224;-51
2021/07/06 02:05:53;;;;;;;10.23;6.65;;;15.90;71.00;;;;;;4965402;28;96891;-50
2021/07/06 02:08:25;;;;;;;8.75;6.57;;;16.00;70.90;;;;;;4962233;28;96033;-48
2021/07/06 02:10:59;;;;;;;10.32;6.75;;;16.00;70.90;;;;;;4964040;28;95700;-51
2021/07/06 02:13:29;;;;;;;7.85;6.45;;;16.00;70.90;;;;;;4952854;28;96522;-54
2021/07/06 02:16:02;;;;;;;9.60;5.88;;;16.00;70.80;;;;;;4951936;28;95880;-50
2021/07/06 02:18:33;;;;;;;7.20;5.80;;;16.00;70.70;;;;;;4962220;28;96971;-51
2021/07/06 02:21:04;;;;;;;9.68;5.82;;;16.00;70.90;;;;;;4964455;28;95820;-51
2021/07/06 02:23:36;;;;;;;9.75;7.68;;;16.00;70.70;;;;;;4964153;28;98158;-50
2021/07/06 02:26:08;;;;;;;12.07;7.70;;;16.10;70.80;;;;;;4962416;28;95889;-53
2021/07/06 02:28:39;;;;;;;11.38;8.15;;;16.10;70.80;;;;;;4962990;28;95826;-49
2021/07/06 02:31:11;;;;;;;11.73;8.13;;;16.10;70.70;;;;;;4956122;28;95376;-50
2021/07/06 02:33:42;;;;;;;13.13;8.88;;;16.10;70.60;;;;;;4962357;28;95748;-49
2021/07/06 02:36:14;;;;;;;13.77;8.43;;;16.20;70.60;;;;;;4961351;28;96041;-51
2021/07/06 02:38:44;;;;;;;12.65;9.18;;;16.20;70.70;;;;;;4963331;28;95559;-53
2021/07/06 02:41:16;;;;;;;12.30;8.68;;;16.20;70.60;;;;;;4961115;28;95417;-52
2021/07/06 02:43:47;;;;;;;10.88;6.82;;;16.20;70.60;;;;;;4961882;28;96278;-59
2021/07/06 02:46:18;;;;;;;10.70;7.80;;;16.20;70.50;;;;;;4952973;28;95916;-50
2021/07/06 02:48:49;;;;;;;;;;;16.30;70.60;;;;;;4963165;28;95832;-50
2021/07/06 02:51:21;;;;;;;11.07;7.10;;;16.30;70.40;;;;;;4961790;28;96034;-49
2021/07/06 02:53:52;;;;;;;10.57;6.90;;;16.30;70.40;;;;;;4962589;28;95957;-52
2021/07/06 02:56:23;;;;;;;8.00;6.57;;;16.30;70.30;;;;;;4959255;28;96362;-52
2021/07/06 02:58:54;;;;;;;8.63;6.80;;;16.40;70.30;;;;;;4962171;28;96739;-53
2021/07/06 03:01:25;;;;;;;8.70;6.55;;;16.40;70.30;;;;;;4955255;28;96144;-59
2021/07/06 03:03:56;;;;;;;8.15;6.22;;;16.40;70.20;;;;;;4961253;28;96075;-53
2021/07/06 03:06:30;;;;;;;8.65;7.05;;;16.40;70.20;;;;;;4958817;28;96600;-57
2021/07/06 03:09:06;;;;;;;8.82;6.47;;;16.40;70.20;;;;;;4962655;28;95952;-59
2021/07/06 03:11:36;;;;;;;9.23;6.00;;;16.40;70.10;;;;;;4958556;28;96233;-51
2021/07/06 03:14:07;;;;;;;7.82;5.53;;;16.40;70.10;;;;;;4952070;28;96434;-50
2021/07/06 03:16:38;;;;;;;7.10;5.28;;;16.40;70.20;;;;;;4950052;28;95338;-49
2021/07/06 03:19:11;;;;;;;8.02;5.93;;;16.40;70.30;;;;;;4942955;28;96732;-50
2021/07/06 03:21:42;;;;;;;10.90;7.35;;;16.40;70.20;;;;;;4959269;28;95954;-53
2021/07/06 03:24:13;;;;;;;9.10;6.53;;;16.40;70.10;;;;;;4963930;28;96491;-52
2021/07/06 03:26:43;;;;;;;10.88;7.65;;;16.40;70.20;;;;;;4960163;28;95827;-50
2021/07/06 03:29:13;;;;;;;12.05;7.13;;;16.40;70.20;;;;;;4963302;28;95802;-52
2021/07/06 03:31:44;;;;;;;9.38;6.40;;;16.40;70.20;;;;;;4956669;28;95864;-51
2021/07/06 03:34:15;;;;;;;;;;;16.40;70.20;;;;;;4961428;28;96418;-51
2021/07/06 03:36:47;;;;;;;7.18;5.40;;;16.40;70.20;;;;;;4960315;28;96202;-57
2021/07/06 03:39:18;;;;;;;9.48;5.78;;;16.40;70.10;;;;;;4962982;28;95778;-53
2021/07/06 03:41:49;;;;;;;10.00;6.25;;;16.50;70.10;;;;;;4959265;28;95690;-60
2021/07/06 03:44:19;;;;;;;9.55;5.97;;;16.50;70.10;;;;;;4962413;28;96678;-50
2021/07/06 03:46:50;;;;;;;10.73;6.03;;;16.50;70.10;;;;;;4959254;28;97354;-54
2021/07/06 03:49:22;;;;;;;7.88;5.50;;;16.50;70.10;;;;;;4961938;28;96403;-60
2021/07/06 03:51:53;;;;;;;7.20;5.78;;;16.60;70.20;;;;;;4962114;28;95921;-51
2021/07/06 03:54:24;;;;;;;7.50;5.32;;;16.60;70.40;;;;;;4973048;28;95959;-52
2021/07/06 03:56:56;;;;;;;;;;;16.60;70.70;;;;;;4963631;28;95842;-59
2021/07/06 03:59:28;;;;;;;6.82;5.30;;;16.70;70.80;;;;;;4962185;28;101182;-60
2021/07/06 04:02:00;;;;;;;7.93;5.47;;;16.70;70.70;;;;;;4954377;28;96523;-59
2021/07/06 04:04:32;;;;;;;7.28;5.47;;;16.80;70.70;;;;;;4955872;28;95927;-58
2021/07/06 04:07:06;;;;;;;6.70;4.75;;;16.80;70.60;;;;;;4961915;28;96228;-50
2021/07/06 04:09:39;;;;;;;7.10;4.53;;;16.80;70.50;;;;;;4957119;28;96479;-59
2021/07/06 04:12:09;;;;;;;5.80;4.75;;;16.90;70.40;;;;;;4961554;28;95328;-59
2021/07/06 04:14:41;;;;;;;7.45;5.20;;;16.90;70.30;;;;;;4948398;28;100939;-60
2021/07/06 04:17:13;;;;;;;6.18;4.50;;;17.00;70.30;;;;;;4956089;28;95826;-60
2021/07/06 04:19:44;;;;;;;6.15;4.05;;;17.00;70.20;;;;;;4959318;28;95781;-60
2021/07/06 04:22:15;;;;;;;6.67;4.60;;;17.00;70.20;;;;;;4961848;28;96049;-59
2021/07/06 04:24:46;;;;;;;6.93;4.68;;;17.00;70.20;;;;;;4958500;28;96805;-60
2021/07/06 04:27:15;;;;;;;5.57;4.05;;;17.00;70.20;;;;;;4960958;28;95992;-60
2021/07/06 04:29:47;;;;;;;5.60;4.15;;;17.00;70.30;;;;;;4958003;28;96348;-60
2021/07/06 04:32:20;;;;;;;8.80;3.90;;;17.00;70.10;;;;;;4957594;28;96231;-60
2021/07/06 04:34:51;;;;;;;8.27;4.50;;;17.10;70.00;;;;;;4955578;28;97043;-59
2021/07/06 04:37:22;;;;;;;;;;;17.10;70.00;;;;;;4962746;28;96786;-61
2021/07/06 04:39:55;;;;;;;7.88;4.75;;;17.10;70.00;;;;;;4959655;28;97115;-59
2021/07/06 04:42:27;;;;;;;6.25;4.80;;;17.10;70.00;;;;;;4960811;28;95982;-59
2021/07/06 04:44:58;;;;;;;4.53;3.63;;;17.10;70.00;;;;;;4958278;28;95776;-60
2021/07/06 04:47:29;;;;;;;5.33;4.83;;;17.10;69.90;;;;;;4960356;28;96315;-54
2021/07/06 04:50:00;;;;;;;5.00;3.90;;;17.20;70.00;;;;;;4958425;28;99742;-59
2021/07/06 04:52:31;;;;;;;5.55;4.43;;;17.20;70.00;;;;;;4962601;28;95772;-58
2021/07/06 04:55:03;;;;;;;4.60;3.92;;;17.20;70.00;;;;;;4958335;28;103483;-59
2021/07/06 04:57:35;;;;;;;5.03;3.53;;;17.20;69.80;;;;;;4963043;28;96089;-58
2021/07/06 05:00:06;;;;;;;4.65;3.20;;;17.20;69.70;;;;;;4960855;28;96919;-58
2021/07/06 05:02:37;;;;;;;3.60;2.88;;;17.30;69.80;;;;;;4960606;28;96389;-59
2021/07/06 05:05:10;;;;;;;4.95;3.38;;;17.30;69.80;;;;;;4961702;28;95997;-59
2021/07/06 05:07:41;;;;;;;4.45;3.08;;;17.30;69.70;;;;;;4964194;28;98108;-60
2021/07/06 05:10:14;;;;;;;4.00;3.40;;;17.30;69.70;;;;;;4961163;28;96123;-58
2021/07/06 05:12:45;;;;;;;4.07;3.42;;;17.30;69.90;;;;;;4961126;28;96054;-60
2021/07/06 05:15:15;;;;;;;;;;;17.30;70.10;;;;;;4943915;28;96887;-53
2021/07/06 05:17:46;;;;;;;3.53;2.70;;;17.40;69.80;;;;;;4962500;28;96460;-60
2021/07/06 05:20:18;;;;;;;6.15;2.58;;;17.40;69.80;;;;;;4964065;28;96939;-50
2021/07/06 05:22:49;;;;;;;2.97;2.27;;;17.40;69.60;;;;;;4961235;28;95781;-59
2021/07/06 05:25:20;;;;;;;3.25;2.92;;;17.50;69.60;;;;;;4964425;28;96238;-52
2021/07/06 05:27:51;;;;;;;5.28;2.70;;;17.50;69.50;;;;;;4962388;28;101180;-59
2021/07/06 05:30:22;;;;;;;3.33;2.42;;;17.50;69.50;;;;;;4961129;28;95737;-58
2021/07/06 05:32:54;;;;;;;2.72;2.25;;;17.40;69.50;;;;;;4960397;28;101230;-51
2021/07/06 05:35:25;;;;;;;3.05;2.28;;;17.50;69.50;;;;;;4964413;28;96389;-59
2021/07/06 05:37:56;;;;;;;4.80;2.42;;;17.50;69.50;;;;;;4976392;28;97452;-60
2021/07/06 05:40:27;;;;;;;3.67;2.30;;;17.50;69.20;;;;;;4963702;28;95437;-58
2021/07/06 05:42:58;;;;;;;;;;;17.50;69.10;;;;;;4962084;28;95971;-60
2021/07/06 05:45:29;;;;;;;2.25;1.95;;;17.50;68.90;;;;;;4959193;28;98297;-52
2021/07/06 05:48:01;;;;;;;2.13;1.90;;;17.50;69.10;;;;;;4960344;28;95343;-52
2021/07/06 05:50:32;;;;;;;2.67;2.47;;;17.50;68.80;;;;;;4964089;28;95823;-51
2021/07/06 05:53:04;;;;;;;2.75;2.25;;;17.50;69.20;;;;;;4962087;28;96868;-50
2021/07/06 05:55:35;;;;;;;2.70;1.95;;;17.50;69.10;;;;;;4962508;28;96811;-52
2021/07/06 05:58:07;;;;;;;5.50;1.90;;;17.50;69.00;;;;;;4943590;28;96754;-52
2021/07/06 06:00:39;;;;;;;2.60;1.88;;;17.50;69.30;;;;;;4959742;28;97261;-48
2021/07/06 06:03:12;;;;;;;5.18;2.10;;;17.50;69.10;;;;;;4959698;28;96464;-52
2021/07/06 06:05:43;;;;;;;3.33;2.50;;;17.40;69.40;;;;;;4963410;28;96490;-50
2021/07/06 06:08:15;;;;;;;3.38;1.88;;;17.40;69.40;;;;;;4960346;28;96811;-54
2021/07/06 06:10:44;;;;;;;2.17;1.88;;;17.30;69.60;;;;;;4964452;28;96009;-60
2021/07/06 06:13:15;;;;;;;3.42;2.55;;;17.30;69.50;;;;;;4952471;28;96299;-50
2021/07/06 06:15:47;;;;;;;;;;;17.20;69.60;;;;;;4952865;28;95908;-52
2021/07/06 06:18:18;;;;;;;4.75;2.22;;;17.20;69.70;;;;;;4963330;28;95949;-59
2021/07/06 06:20:48;;;;;;;4.15;2.03;;;17.10;69.70;;;;;;4964566;28;95908;-60
2021/07/06 06:23:18;;;;;;;2.50;2.30;;;17.10;69.80;;;;;;4952727;28;96252;-60
2021/07/06 06:25:49;;;;;;;4.72;2.47;;;17.10;69.90;;;;;;4963519;28;95909;-59
2021/07/06 06:28:22;;;;;;;2.65;1.83;;;17.00;70.00;;;;;;4961169;28;98022;-53
2021/07/06 06:30:55;;;;;;;2.45;2.00;;;17.00;70.10;;;;;;4960445;28;95952;-60
2021/07/06 06:33:26;;;;;;;2.67;2.20;;;17.00;70.10;;;;;;4962467;28;96171;-59
2021/07/06 06:35:57;;;;;;;2.25;2.00;;;16.90;70.20;;;;;;4963773;28;95877;-53
2021/07/06 06:38:28;;;;;;;2.53;2.05;;;16.90;70.20;;;;;;4963170;28;95493;-59
2021/07/06 06:40:59;;;;;;;2.63;2.00;;;16.90;70.30;;;;;;4962083;28;97872;-60
2021/07/06 06:43:30;;;;;;;;;;;16.90;70.40;;;;;;4965737;28;96800;-58
2021/07/06 06:46:01;;;;;;;3.08;1.98;;;16.80;70.40;;;;;;4957872;28;95838;-60
2021/07/06 06:48:34;;;;;;;2.60;2.28;;;16.80;70.50;;;;;;4964758;28;96860;-60
2021/07/06 06:51:05;;;;;;;3.47;1.85;;;16.80;70.60;;;;;;4961336;28;95935;-59
2021/07/06 06:53:36;;;;;;;2.45;1.60;;;16.80;70.60;;;;;;4978730;28;96196;-59
2021/07/06 06:56:07;;;;;;;2.33;2.10;;;16.70;70.70;;;;;;4973795;28;98014;-59
2021/07/06 06:58:38;;;;;;;2.55;1.70;;;16.70;70.80;;;;;;4964061;28;95894;-59
2021/07/06 07:01:08;;;;;;;3.08;1.80;;;16.70;70.80;;;;;;4956783;28;95436;-52
2021/07/06 07:03:38;;;;;;;2.13;1.63;;;16.60;70.90;;;;;;4964469;28;95647;-52
2021/07/06 07:06:10;;;;;;;3.33;2.10;;;16.60;70.90;;;;;;4961324;28;95911;-59
2021/07/06 07:08:40;;;;;;;;;;;16.60;70.90;;;;;;4964189;28;95732;-49
2021/07/06 07:11:10;;;;;;;3.88;2.63;;;16.60;71.00;;;;;;4956257;28;96399;-59
2021/07/06 07:13:39;;;;;;;2.05;1.85;;;16.60;71.00;;;;;;4954194;28;96080;-59
2021/07/06 07:16:11;;;;;;;3.40;1.90;;;16.50;71.00;;;;;;4951067;28;99739;-60
2021/07/06 07:18:43;;;;;;;;;;;16.50;71.60;;;;;;4963127;28;95952;-51
2021/07/06 07:21:13;;;;;;;2.35;1.92;;;16.50;71.10;;;;;;4960516;28;96533;-50
2021/07/06 07:23:46;;;;;;;2.20;1.98;;;16.40;71.10;;;;;;4963064;28;96418;-50
2021/07/06 07:26:17;;;;;;;2.00;1.80;;;16.40;71.10;;;;;;4961270;28;96113;-51
2021/07/06 07:28:48;;;;;;;2.08;1.88;;;16.40;71.20;;;;;;4961959;28;95769;-50
2021/07/06 07:31:19;;;;;;;3.15;1.90;;;16.40;71.30;;;;;;4955363;28;96057;-49
2021/07/06 07:33:51;;;;;;;2.47;1.73;;;16.30;71.30;;;;;;4963754;28;95908;-50
2021/07/06 07:36:23;;;;;;;1.83;1.73;;;16.30;71.40;;;;;;4959678;28;96058;-53
2021/07/06 07:38:55;;;;;;;2.85;1.85;;;16.30;71.40;;;;;;4959900;28;96344;-54
2021/07/06 07:41:27;;;;;;;4.03;2.20;;;16.30;71.50;;;;;;4960671;28;95686;-50
2021/07/06 07:43:58;;;;;;;2.13;1.90;;;16.20;71.70;;;;;;4963695;28;96180;-52
2021/07/06 07:46:30;;;;;;;2.17;1.98;;;16.20;71.60;;;;;;4954942;28;98739;-52
2021/07/06 07:49:01;;;;;;;3.53;2.50;;;16.20;71.70;;;;;;4963508;28;95806;-50
2021/07/06 07:51:32;;;;;;;2.65;2.45;;;16.20;71.60;;;;;;4961230;28;96993;-49
2021/07/06 07:54:03;;;;;;;4.18;2.67;;;16.20;71.50;;;;;;4962248;28;95973;-50
2021/07/06 07:56:34;;;;;;;;;;;16.20;71.50;;;;;;4961944;28;96174;-52
2021/07/06 07:59:05;;;;;;;4.20;3.38;;;16.20;71.50;;;;;;4963839;28;96200;-53
2021/07/06 08:01:34;;;;;;;5.45;3.55;;;16.10;71.50;;;;;;4957504;28;96893;-54
2021/07/06 08:04:07;;;;;;;5.13;3.17;;;16.10;71.50;;;;;;4958667;28;96192;-52
2021/07/06 08:06:38;;;;;;;4.63;3.37;;;16.10;71.60;;;;;;4963629;28;96187;-51
2021/07/06 08:09:10;;;;;;;5.57;3.83;;;16.10;71.60;;;;;;4960716;28;97549;-53
2021/07/06 08:11:42;;;;;;;10.82;7.53;;;16.10;71.60;;;;;;4963138;28;95875;-52
2021/07/06 08:14:12;;;;;;;18.63;12.75;;;16.10;71.70;;;;;;4950153;28;96277;-60
2021/07/06 08:16:43;;;;;;;27.95;18.85;;;16.10;71.90;;;;;;4953497;28;97990;-59
2021/07/06 08:19:15;;;;;;;39.05;22.00;;;16.10;72.10;;;;;;4957410;28;96043;-50
2021/07/06 08:21:45;;;;;;;32.08;22.95;;;16.10;72.30;;;;;;4962906;28;96696;-53
2021/07/06 08:24:16;;;;;;;37.20;23.67;;;16.10;72.50;;;;;;4959683;28;96613;-52
2021/07/06 08:26:49;;;;;;;46.03;28.80;;;16.10;72.80;;;;;;4962996;28;96431;-52
2021/07/06 08:29:19;;;;;;;50.97;29.63;;;16.10;72.90;;;;;;4958769;28;96025;-52
2021/07/06 08:31:51;;;;;;;52.47;31.13;;;16.10;73.20;;;;;;4959868;28;95336;-54
2021/07/06 08:34:23;;;;;;;52.95;32.97;;;16.10;73.40;;;;;;4962312;28;96301;-50
2021/07/06 08:36:53;;;;;;;;;;;16.10;73.50;;;;;;4964099;28;96787;-53
2021/07/06 08:39:24;;;;;;;54.88;33.00;;;16.10;73.70;;;;;;4964448;28;95858;-60
2021/07/06 08:41:57;;;;;;;58.35;34.53;;;16.10;73.90;;;;;;4961896;28;97378;-59
2021/07/06 08:44:28;;;;;;;49.25;31.08;;;16.10;74.10;;;;;;4962803;28;102219;-54
2021/07/06 08:47:02;;;;;;;55.83;32.85;;;16.10;74.10;;;;;;4959386;28;96220;-59
2021/07/06 08:49:36;;;;;;;51.58;33.05;;;16.10;74.30;;;;;;4961503;28;97232;-54
2021/07/06 08:52:06;;;;;;;54.75;31.92;;;16.10;74.40;;;;;;4963631;28;96208;-51
2021/07/06 08:54:38;;;;;;;;;;;16.10;74.60;;;;;;4961995;28;97639;-53
2021/07/06 08:57:10;;;;;;;57.38;31.85;;;16.10;74.60;;;;;;4967034;28;96714;-51
2021/07/06 08:59:41;;;;;;;;;;;16.00;74.60;;;;;;4962511;28;97059;-58
2021/07/06 09:02:13;;;;;;;46.77;26.23;;;16.00;74.80;;;;;;4962672;28;95555;-51
2021/07/06 09:04:50;;;;;;;43.08;27.70;;;16.00;74.60;;;;;;4963111;28;97074;-60
2021/07/06 09:07:22;;;;;;;43.05;24.42;;;16.00;74.70;;;;;;4964265;28;96886;-59
2021/07/06 09:09:53;;;;;;;42.15;23.55;;;16.00;74.80;;;;;;4960107;28;95987;-59
2021/07/06 09:12:34;;;;;;;40.15;22.88;;;16.00;74.80;;;;;;4963481;28;96373;-53
2021/07/06 09:15:28;;;;;;;34.20;20.80;;;16.00;74.70;;;;;;4949364;28;95987;-59
2021/07/06 09:18:16;;;;;;;31.27;19.02;;;16.00;75.10;;;;;;4963720;28;102294;-58
2021/07/06 09:21:08;;;;;;;31.20;17.63;;;16.10;74.40;;;;;;4974962;28;96263;-59
2021/07/06 09:23:43;;;;;;;27.75;15.25;;;16.20;74.70;;;;;;4960361;28;96210;-59
2021/07/06 09:26:25;;;;;;;17.42;12.98;;;16.20;73.70;;;;;;4959468;28;96100;-60
2021/07/06 09:28:57;;;;;;;19.23;11.07;;;16.30;73.90;;;;;;4963511;28;95865;-54
2021/07/06 09:31:33;;;;;;;15.70;10.75;;;16.40;74.20;;;;;;4956837;28;96394;-60
2021/07/06 09:34:12;;;;;;;20.00;10.30;;;16.40;74.10;;;;;;4963874;28;97399;-52
2021/07/06 09:36:49;;;;;;;14.70;9.85;;;16.40;73.90;;;;;;4961784;28;96587;-61
2021/07/06 09:39:24;;;;;;;17.98;9.93;;;16.50;74.50;;;;;;4965575;28;96580;-55
2021/07/06 09:41:59;;;;;;;15.85;8.68;;;16.50;74.50;;;;;;4957527;28;95798;-60
2021/07/06 09:44:32;;;;;;;15.15;8.52;;;16.50;74.30;;;;;;4962833;28;95945;-57
2021/07/06 09:47:12;;;;;;;14.90;8.95;;;16.50;74.10;;;;;;4958073;28;98811;-61
2021/07/06 09:49:54;;;;;;;13.05;8.00;;;16.50;74.20;;;;;;4963926;28;95871;-60
2021/07/06 09:52:26;;;;;;;16.63;7.45;;;16.50;74.00;;;;;;4960523;28;96748;-61
2021/07/06 09:54:57;;;;;;;12.45;7.30;;;16.50;74.10;;;;;;4964567;28;95852;-59
2021/07/06 09:57:33;;;;;;;11.75;7.07;;;16.60;73.90;;;;;;4961295;28;95523;-57
2021/07/06 10:00:15;;;;;;;12.77;7.25;;;16.50;73.80;;;;;;4963135;28;96566;-61
2021/07/06 10:02:45;;;;;;;;;;;16.50;73.80;;;;;;4940616;28;96641;-56
2021/07/06 10:05:20;;;;;;;11.57;7.10;;;16.50;74.40;;;;;;4946958;28;95760;-57
2021/07/06 10:07:52;;;;;;;11.52;7.68;;;16.50;73.90;;;;;;4943346;28;96581;-60
2021/07/06 10:10:24;;;;;;;10.77;7.28;;;16.40;73.80;;;;;;4945323;28;96539;-61
2021/07/06 10:12:56;;;;;;;10.98;6.72;;;16.40;73.90;;;;;;4937918;28;95810;-61
2021/07/06 10:15:27;;;;;;;10.23;6.75;;;16.40;73.90;;;;;;4927103;28;96248;-61
2021/07/06 10:17:58;;;;;;;;;;;16.40;73.90;;;;;;4961448;28;95837;-60
2021/07/06 10:20:35;;;;;;;10.13;6.73;;;16.30;73.90;;;;;;4966154;28;97800;-60
2021/07/06 10:23:05;;;;;;;8.48;6.30;;;16.30;73.90;;;;;;4959169;28;97756;-61
2021/07/06 10:25:38;;;;;;;7.72;6.13;;;16.30;73.90;;;;;;4965031;28;96761;-61
2021/07/06 10:28:16;;;;;;;9.02;6.00;;;16.30;73.90;;;;;;4961456;28;96287;-61
2021/07/06 10:31:19;;;;;;;8.23;5.88;;;16.20;73.90;;;;;;4957326;28;97313;-61
2021/07/06 10:33:51;;;;;;;7.78;5.40;;;16.20;74.00;;;;;;4956819;28;95763;-60
2021/07/06 10:36:42;;;;;;;7.57;6.22;;;16.20;73.90;;;;;;4963362;28;95776;-60
2021/07/06 10:39:15;;;;;;;10.40;5.90;;;16.20;73.90;;;;;;4960473;28;98178;-57
2021/07/06 10:41:58;;;;;;;7.93;5.32;;;16.20;73.80;;;;;;4961875;28;95894;-61
2021/07/06 10:44:34;;;;;;;8.32;5.82;;;16.20;73.80;;;;;;4959665;28;96681;-56
2021/07/06 10:47:06;;;;;;;7.78;5.35;;;16.20;73.80;;;;;;4944326;28;95830;-54
2021/07/06 10:49:37;;;;;;;8.07;5.10;;;16.10;73.90;;;;;;4939987;28;95891;-58
2021/07/06 10:52:12;;;;;;;6.45;5.47;;;16.00;74.30;;;;;;4943319;28;98165;-55
2021/07/06 10:54:43;;;;;;;7.75;4.85;;;16.00;74.40;;;;;;4937484;28;96961;-56
2021/07/06 10:57:23;;;;;;;6.90;5.68;;;15.90;74.60;;;;;;4943896;28;95803;-59
2021/07/06 10:59:57;;;;;;;7.20;5.22;;;15.90;74.80;;;;;;4940965;28;100051;-55
2021/07/06 11:02:29;;;;;;;7.50;5.30;;;15.80;75.00;;;;;;4966670;28;98400;-55
2021/07/06 11:05:02;;;;;;;5.72;5.13;;;15.80;75.30;;;;;;4958662;28;96020;-55
2021/07/06 11:07:37;;;;;;;8.38;5.55;;;15.80;75.30;;;;;;4962120;28;95873;-54
2021/07/06 11:10:08;;;;;;;6.22;4.45;;;15.70;75.50;;;;;;4959770;28;96915;-55
2021/07/06 11:12:44;;;;;;;8.38;4.80;;;15.70;75.60;;;;;;4960399;28;96297;-54
2021/07/06 11:15:20;;;;;;;7.57;5.03;;;15.70;75.70;;;;;;4940929;28;96815;-56
2021/07/06 11:18:06;;;;;;;6.65;4.90;;;15.60;75.60;;;;;;4961857;28;95736;-55
2021/07/06 11:20:39;;;;;;;5.10;4.43;;;15.60;75.80;;;;;;4959704;28;100092;-55
2021/07/06 11:23:29;;;;;;;6.43;4.60;;;15.60;76.00;;;;;;4959609;28;95917;-56
2021/07/06 11:26:10;;;;;;;4.90;4.05;;;15.60;76.20;;;;;;4959104;28;96289;-56
2021/07/06 11:29:02;;;;;;;6.63;4.80;;;15.50;76.20;;;;;;4955163;28;96857;-55
2021/07/06 11:31:34;;;;;;;5.90;4.78;;;15.50;76.30;;;;;;4953736;28;98855;-54
2021/07/06 11:34:19;;;;;;;5.38;4.30;;;15.50;76.20;;;;;;4962389;28;95966;-56
2021/07/06 11:36:52;;;;;;;7.35;5.68;;;15.40;76.20;;;;;;4963788;28;95785;-56
2021/07/06 11:39:23;;;;;;;6.82;4.97;;;15.50;76.40;;;;;;4965385;28;95642;-55
2021/07/06 11:41:57;;;;;;;4.60;4.03;;;15.60;76.30;;;;;;4964234;28;96205;-54
2021/07/06 11:44:30;;;;;;;6.63;4.63;;;15.70;76.00;;;;;;4981325;28;96293;-55
2021/07/06 11:47:08;;;;;;;5.10;4.45;;;15.70;75.80;;;;;;4947717;28;96020;-53
2021/07/06 11:49:40;;;;;;;4.22;3.47;;;15.80;75.80;;;;;;4945863;28;95707;-52
2021/07/06 11:52:11;;;;;;;3.90;3.45;;;15.90;75.80;;;;;;4960755;28;95763;-59
2021/07/06 11:54:44;;;;;;;4.15;3.30;;;16.00;75.60;;;;;;4947387;28;96099;-58
2021/07/06 11:57:15;;;;;;;4.22;3.00;;;16.10;75.50;;;;;;4942735;28;96326;-61
2021/07/06 11:59:45;;;;;;;3.58;3.15;;;16.10;75.40;;;;;;4945543;28;95289;-59
2021/07/06 12:02:17;;;;;;;4.70;3.60;;;16.20;75.30;;;;;;4955854;28;96332;-57
2021/07/06 12:04:52;;;;;;;5.55;3.85;;;16.20;75.10;;;;;;4969263;28;95724;-57
2021/07/06 12:07:22;;;;;;;5.70;4.22;;;16.30;75.20;;;;;;4969173;28;95693;-58
2021/07/06 12:10:01;;;;;;;5.80;4.63;;;16.30;75.00;;;;;;4971576;28;95445;-59
2021/07/06 12:12:32;;;;;;;7.38;4.55;;;16.30;73.70;;;;;;4961390;28;96855;-58
2021/07/06 12:15:03;;;;;;;6.35;4.07;;;16.30;74.50;;;;;;4957946;28;96378;-59
2021/07/06 12:17:34;;;;;;;6.43;5.10;;;16.40;74.60;;;;;;4963927;28;96044;-58
2021/07/06 12:20:17;;;;;;;5.63;3.58;;;16.40;73.10;;;;;;4970647;28;95746;-54
2021/07/06 12:22:58;;;;;;;6.15;4.30;;;16.40;74.00;;;;;;4968017;28;95786;-57
2021/07/06 12:25:30;;;;;;;5.13;4.10;;;16.40;74.10;;;;;;4965978;28;95887;-56
2021/07/06 12:28:00;;;;;;;5.28;4.18;;;16.50;74.20;;;;;;4966059;28;95665;-58
2021/07/06 12:30:31;;;;;;;5.88;4.05;;;16.50;74.10;;;;;;4964422;28;95936;-58
2021/07/06 12:33:08;;;;;;;6.28;4.50;;;16.60;74.10;;;;;;4965791;28;96884;-57
2021/07/06 12:35:38;;;;;;;5.63;4.28;;;16.60;74.00;;;;;;4970404;28;95829;-51
2021/07/06 12:38:10;;;;;;;5.57;4.17;;;16.70;74.20;;;;;;4965860;28;96541;-54
2021/07/06 12:40:42;;;;;;;6.22;4.35;;;16.70;74.10;;;;;;4969996;28;95794;-54
2021/07/06 12:43:13;;;;;;;4.72;3.47;;;16.70;74.10;;;;;;4966179;28;96013;-59
2021/07/06 12:45:43;;;;;;;5.03;4.53;;;16.80;74.10;;;;;;4963753;28;95726;-55
2021/07/06 12:48:25;;;;;;;5.40;4.57;;;16.80;74.20;;;;;;4961407;28;96437;-54
2021/07/06 12:51:10;;;;;;;5.13;4.13;;;16.80;74.10;;;;;;4970458;28;95635;-56
2021/07/06 12:53:54;;;;;;;6.47;4.22;;;16.80;74.20;;;;;;4966830;28;96839;-54
2021/07/06 12:56:30;;;;;;;5.53;4.32;;;16.80;74.10;;;;;;4968339;28;97194;-56
2021/07/06 12:59:23;;;;;;;5.88;4.55;;;16.90;74.20;;;;;;4964681;28;95777;-58
2021/07/06 13:01:54;;;;;;;5.90;4.15;;;16.90;74.00;;;;;;4960394;28;98962;-54
2021/07/06 13:04:51;;;;;;;6.45;4.32;;;16.90;73.50;;;;;;4964336;28;96006;-53
2021/07/06 13:07:26;;;;;;;6.70;4.80;;;16.90;73.80;;;;;;4965389;28;95983;-55
2021/07/06 13:10:14;;;;;;;5.93;4.28;;;16.90;73.60;;;;;;4965285;28;96094;-54
2021/07/06 13:12:45;;;;;;;5.57;4.53;;;17.00;73.70;;;;;;4967586;28;95711;-55
2021/07/06 13:15:19;;;;;;;6.70;4.32;;;17.00;73.60;;;;;;4955573;28;96186;-56
2021/07/06 13:17:49;;;;;;;5.15;4.07;;;17.00;73.60;;;;;;4967264;28;96650;-54